createdAt,value
2019-01-10T00:00:28.735Z,89.20
2019-01-10T00:02:58.006Z,89.60
2019-01-10T00:05:28.363Z,89.40
2019-01-10T00:07:57.931Z,89.40
2019-01-10T00:10:27.218Z,89.00
2019-01-10T00:12:56.481Z,89.30
2019-01-10T00:15:25.758Z,89.10
2019-01-10T00:17:55.025Z,88.70
2019-01-10T00:20:24.353Z,88.90
2019-01-10T00:22:53.723Z,88.70
2019-01-10T00:25:23.094Z,88.70
2019-01-10T00:27:52.362Z,88.50
2019-01-10T00:30:22.250Z,88.40
2019-01-10T00:32:51.863Z,88.10
2019-01-10T00:35:21.471Z,88.40
2019-01-10T00:37:50.745Z,88.70
2019-01-10T00:40:20.022Z,88.30
2019-01-10T00:42:50.038Z,88.30
2019-01-10T00:45:19.795Z,88.40
2019-01-10T00:47:49.408Z,88.10
2019-01-10T00:50:24.335Z,88.20
2019-01-10T00:52:53.975Z,88.00
2019-01-10T00:55:23.570Z,87.90
2019-01-10T00:57:53.169Z,87.70
2019-01-10T01:00:24.505Z,88.20
2019-01-10T01:02:54.322Z,87.80
2019-01-10T01:05:24.093Z,88.10
2019-01-10T01:07:53.743Z,88.30
2019-01-10T01:10:25.480Z,88.60
2019-01-10T01:12:58.762Z,88.50
2019-01-10T01:15:26.454Z,87.70
2019-01-10T01:17:56.078Z,88.10
2019-01-10T01:20:25.469Z,88.00
2019-01-10T01:22:55.182Z,88.00
2019-01-10T01:25:24.633Z,88.00
2019-01-10T01:27:54.143Z,88.10
2019-01-10T01:30:25.283Z,88.40
2019-01-10T01:32:54.839Z,87.70
2019-01-10T01:35:24.109Z,88.20
2019-01-10T01:37:53.385Z,88.30
2019-01-10T01:40:22.723Z,87.80
2019-01-10T01:42:51.993Z,88.40
2019-01-10T01:45:21.272Z,88.70
2019-01-10T01:47:50.850Z,88.40
2019-01-10T01:50:22.468Z,88.60
2019-01-10T01:52:53.526Z,88.70
2019-01-10T01:55:23.147Z,89.30
2019-01-10T01:57:52.975Z,89.20
2019-01-10T02:00:24.585Z,89.00
2019-01-10T02:02:53.859Z,89.00
2019-01-10T02:05:23.315Z,89.10
2019-01-10T02:07:52.735Z,88.80
2019-01-10T02:10:24.279Z,89.10
2019-01-10T02:12:53.692Z,89.20
2019-01-10T02:15:23.033Z,89.30
2019-01-10T02:17:52.320Z,88.80
2019-01-10T02:20:21.662Z,89.30
2019-01-10T02:22:52.099Z,89.00
2019-01-10T02:25:21.370Z,89.10
2019-01-10T02:27:50.658Z,89.70
2019-01-10T02:30:22.471Z,89.00
2019-01-10T02:32:51.763Z,89.10
2019-01-10T02:35:21.028Z,89.10
2019-01-10T02:37:50.322Z,88.90
2019-01-10T02:40:19.991Z,89.10
2019-01-10T02:42:49.604Z,88.50
2019-01-10T02:45:18.934Z,88.90
2019-01-10T02:47:48.224Z,89.10
2019-01-10T02:50:20.480Z,88.70
2019-01-10T02:52:49.828Z,88.70
2019-01-10T02:55:19.737Z,88.70
2019-01-10T02:57:49.046Z,88.90
2019-01-10T03:00:20.763Z,89.00
2019-01-10T03:02:51.495Z,89.40
2019-01-10T03:05:22.283Z,88.80
2019-01-10T03:07:51.564Z,88.60
2019-01-10T03:10:23.278Z,89.00
2019-01-10T03:12:52.984Z,89.00
2019-01-10T03:15:22.263Z,89.40
2019-01-10T03:17:51.914Z,89.90
2019-01-10T03:20:22.417Z,90.10
2019-01-10T03:22:51.703Z,90.20
2019-01-10T03:25:21.247Z,89.70
2019-01-10T03:27:50.601Z,89.40
2019-01-10T03:30:21.011Z,89.80
2019-01-10T03:32:50.606Z,89.90
2019-01-10T03:35:19.866Z,90.40
2019-01-10T03:37:49.150Z,90.20
2019-01-10T03:40:20.077Z,90.40
2019-01-10T03:42:50.023Z,90.40
2019-01-10T03:45:20.438Z,90.20
2019-01-10T03:47:50.056Z,90.20
2019-01-10T03:50:20.581Z,90.50
2019-01-10T03:52:50.919Z,90.40
2019-01-10T03:55:20.200Z,90.20
2019-01-10T03:57:49.475Z,90.70
2019-01-10T04:00:21.106Z,90.90
2019-01-10T04:02:50.788Z,91.00
2019-01-10T04:05:20.228Z,91.00
2019-01-10T04:07:49.850Z,90.60
2019-01-10T04:10:19.134Z,90.30
2019-01-10T04:12:49.627Z,90.20
2019-01-10T04:15:18.994Z,90.70
2019-01-10T04:17:48.322Z,90.90
2019-01-10T04:20:18.544Z,91.10
2019-01-10T04:22:47.815Z,91.30
2019-01-10T04:25:17.562Z,91.30
2019-01-10T04:27:46.832Z,91.20
2019-01-10T04:30:18.618Z,91.10
2019-01-10T04:32:48.326Z,91.00
2019-01-10T04:35:17.682Z,91.10
2019-01-10T04:37:46.960Z,91.00
2019-01-10T04:40:18.088Z,91.30
2019-01-10T04:42:47.352Z,91.20
2019-01-10T04:45:16.750Z,91.20
2019-01-10T04:47:46.383Z,91.40
2019-01-10T04:50:16.299Z,91.00
2019-01-10T04:52:45.569Z,91.20
2019-01-10T04:55:15.005Z,90.90
2019-01-10T04:57:44.615Z,91.60
2019-01-10T05:00:17.597Z,91.60
2019-01-10T05:02:46.875Z,91.60
2019-01-10T05:05:16.166Z,92.10
2019-01-10T05:07:45.442Z,92.00
2019-01-10T05:10:14.795Z,92.00
2019-01-10T05:12:44.301Z,91.60
2019-01-10T05:15:15.419Z,91.80
2019-01-10T05:17:45.059Z,92.40
2019-01-10T05:20:16.760Z,92.70
2019-01-10T05:22:46.575Z,92.50
2019-01-10T05:25:16.347Z,92.80
2019-01-10T05:27:46.607Z,92.50
2019-01-10T05:30:21.185Z,92.80
2019-01-10T05:32:50.726Z,92.90
2019-01-10T05:35:20.319Z,93.10
2019-01-10T05:37:49.602Z,93.00
2019-01-10T05:40:18.879Z,92.80
2019-01-10T05:42:48.421Z,92.60
2019-01-10T05:45:18.839Z,92.80
2019-01-10T05:47:48.127Z,92.40
2019-01-10T05:50:18.075Z,92.80
2019-01-10T05:52:47.775Z,92.50
2019-01-10T05:55:18.498Z,92.50
2019-01-10T05:57:48.107Z,92.90
2019-01-10T06:00:25.173Z,93.00
2019-01-10T06:02:54.450Z,93.00
2019-01-10T06:05:23.800Z,93.10
2019-01-10T06:07:53.082Z,93.10
2019-01-10T06:10:25.047Z,93.10
2019-01-10T06:12:54.397Z,93.00
2019-01-10T06:15:23.829Z,92.90
2019-01-10T06:17:53.114Z,93.50
2019-01-10T06:20:24.136Z,93.40
2019-01-10T06:22:53.411Z,93.30
2019-01-10T06:25:22.687Z,93.10
2019-01-10T06:27:51.979Z,93.30
2019-01-10T06:30:22.498Z,93.20
2019-01-10T06:32:52.138Z,93.70
2019-01-10T06:35:21.748Z,93.20
2019-01-10T06:37:51.027Z,93.10
2019-01-10T06:40:21.274Z,93.70
2019-01-10T06:42:50.553Z,93.30
2019-01-10T06:45:20.212Z,93.50
2019-01-10T06:47:49.542Z,93.50
2019-01-10T06:50:19.288Z,93.60
2019-01-10T06:52:48.580Z,93.60
2019-01-10T06:55:18.924Z,93.70
2019-01-10T06:57:48.212Z,94.10
2019-01-10T07:00:20.093Z,94.10
2019-01-10T07:02:50.101Z,93.80
2019-01-10T07:05:19.382Z,93.90
2019-01-10T07:07:56.348Z,93.30
2019-01-10T07:10:22.623Z,93.50
2019-01-10T07:12:52.214Z,93.80
2019-01-10T07:15:21.834Z,93.70
2019-01-10T07:17:51.384Z,93.90
2019-01-10T07:20:20.842Z,94.00
2019-01-10T07:22:51.858Z,94.00
2019-01-10T07:25:21.399Z,93.80
2019-01-10T07:27:50.689Z,93.50
2019-01-10T07:30:23.335Z,93.60
2019-01-10T07:32:52.648Z,93.80
2019-01-10T07:35:21.914Z,93.40
2019-01-10T07:37:53.246Z,93.50
2019-01-10T07:40:22.827Z,93.30
2019-01-10T07:42:52.421Z,93.40
2019-01-10T07:45:23.337Z,93.50
2019-01-10T07:47:52.624Z,93.80
2019-01-10T07:50:30.005Z,93.70
2019-01-10T07:52:59.283Z,94.00
2019-01-10T07:55:28.562Z,93.90
2019-01-10T07:57:57.860Z,94.00
2019-01-10T08:00:27.472Z,94.10
2019-01-10T08:02:56.947Z,94.30
2019-01-10T08:05:26.223Z,94.20
2019-01-10T08:07:55.792Z,94.30
2019-01-10T08:10:25.494Z,94.20
2019-01-10T08:12:54.863Z,94.30
2019-01-10T08:15:24.507Z,94.60
2019-01-10T08:17:53.971Z,94.30
2019-01-10T08:20:23.820Z,94.20
2019-01-10T08:22:53.166Z,94.10
2019-01-10T08:25:22.730Z,94.00
2019-01-10T08:27:52.018Z,93.90
2019-01-10T08:30:23.274Z,94.40
2019-01-10T08:32:52.630Z,94.80
2019-01-10T08:35:23.249Z,94.30
2019-01-10T08:37:52.821Z,94.30
2019-01-10T08:40:22.418Z,94.30
2019-01-10T08:42:51.763Z,94.30
2019-01-10T08:45:22.091Z,94.30
2019-01-10T08:47:51.577Z,94.40
2019-01-10T08:50:22.822Z,93.60
2019-01-10T08:52:52.162Z,93.90
2019-01-10T08:55:21.454Z,94.40
2019-01-10T08:57:52.039Z,94.40
2019-01-10T09:00:22.002Z,94.40
2019-01-10T09:02:51.291Z,94.50
2019-01-10T09:05:20.577Z,94.50
2019-01-10T09:07:49.857Z,94.80
2019-01-10T09:10:24.249Z,94.70
2019-01-10T09:12:53.517Z,94.90
2019-01-10T09:15:25.425Z,95.10
2019-01-10T09:17:53.770Z,94.80
2019-01-10T09:20:23.057Z,94.10
2019-01-10T09:22:52.624Z,94.40
2019-01-10T09:25:21.907Z,91.90
2019-01-10T09:27:51.182Z,89.60
2019-01-10T09:30:21.536Z,89.60
2019-01-10T09:32:50.986Z,91.00
2019-01-10T09:35:20.771Z,91.90
2019-01-10T09:37:50.047Z,92.40
2019-01-10T09:40:21.091Z,92.70
2019-01-10T09:42:50.835Z,93.20
2019-01-10T09:45:21.849Z,93.60
2019-01-10T09:47:51.462Z,93.80
2019-01-10T09:50:22.094Z,93.60
2019-01-10T09:52:52.322Z,93.40
2019-01-10T09:55:21.675Z,93.80
2019-01-10T09:57:50.951Z,93.40
2019-01-10T10:00:27.649Z,93.70
2019-01-10T10:02:57.308Z,93.70
2019-01-10T10:05:26.595Z,93.70
2019-01-10T10:07:55.877Z,93.50
2019-01-10T10:10:25.173Z,93.60
2019-01-10T10:12:54.445Z,93.40
2019-01-10T10:15:24.019Z,93.40
2019-01-10T10:17:53.310Z,93.10
2019-01-10T10:20:23.917Z,92.70
2019-01-10T10:22:53.372Z,92.60
2019-01-10T10:25:22.978Z,92.70
2019-01-10T10:27:52.250Z,93.10
2019-01-10T10:30:21.595Z,92.90
2019-01-10T10:32:51.275Z,92.50
2019-01-10T10:35:21.289Z,93.00
2019-01-10T10:37:50.655Z,92.70
2019-01-10T10:40:20.668Z,92.70
2019-01-10T10:42:50.235Z,92.30
2019-01-10T10:45:20.424Z,92.20
2019-01-10T10:47:49.957Z,92.50
2019-01-10T10:50:24.793Z,92.50
2019-01-10T10:52:54.489Z,92.40
2019-01-10T10:55:24.095Z,91.40
2019-01-10T10:57:53.810Z,91.50
2019-01-10T11:00:27.829Z,91.90
2019-01-10T11:02:57.294Z,91.90
2019-01-10T11:05:26.827Z,91.30
2019-01-10T11:07:56.280Z,90.90
2019-01-10T11:10:25.969Z,90.80
2019-01-10T11:12:55.542Z,90.10
2019-01-10T11:15:24.891Z,89.10
2019-01-10T11:17:54.237Z,89.10
2019-01-10T11:20:23.586Z,88.80
2019-01-10T11:22:53.007Z,87.70
2019-01-10T11:25:23.910Z,88.40
2019-01-10T11:27:53.500Z,88.90
2019-01-10T11:30:22.776Z,88.80
2019-01-10T11:32:53.698Z,87.30
2019-01-10T11:35:24.107Z,88.50
2019-01-10T11:37:53.450Z,87.40
2019-01-10T11:40:23.079Z,87.30
2019-01-10T11:42:52.550Z,86.80
2019-01-10T11:45:23.061Z,86.80
2019-01-10T11:47:53.498Z,87.10
2019-01-10T11:50:22.918Z,87.90
2019-01-10T11:52:52.558Z,83.20
2019-01-10T11:55:22.161Z,77.20
2019-01-10T11:57:51.770Z,79.40
2019-01-10T12:00:28.634Z,81.00
2019-01-10T12:02:58.006Z,82.80
2019-01-10T12:05:27.558Z,83.80
2019-01-10T12:07:57.162Z,84.20
2019-01-10T12:10:26.431Z,83.90
2019-01-10T12:12:55.969Z,84.20
2019-01-10T12:15:25.257Z,84.90
2019-01-10T12:17:54.678Z,84.80
2019-01-10T12:20:23.961Z,84.40
2019-01-10T12:22:53.247Z,84.60
2019-01-10T12:25:22.507Z,84.40
2019-01-10T12:27:52.079Z,84.40
2019-01-10T12:30:23.853Z,84.40
2019-01-10T12:32:53.451Z,85.60
2019-01-10T12:35:23.067Z,85.30
2019-01-10T12:37:52.355Z,84.50
2019-01-10T12:40:21.718Z,84.80
2019-01-10T12:42:52.021Z,83.80
2019-01-10T12:45:21.388Z,84.50
2019-01-10T12:47:50.994Z,84.90
2019-01-10T12:50:23.262Z,84.30
2019-01-10T12:52:52.874Z,85.20
2019-01-10T12:55:22.165Z,84.80
2019-01-10T12:57:51.679Z,84.70
2019-01-10T13:00:23.668Z,84.30
2019-01-10T13:02:54.782Z,85.30
2019-01-10T13:05:24.315Z,84.70
2019-01-10T13:08:03.098Z,83.90
2019-01-10T13:10:24.759Z,83.30
2019-01-10T13:12:54.099Z,83.60
2019-01-10T13:15:25.320Z,83.90
2019-01-10T13:17:54.652Z,84.30
2019-01-10T13:20:24.399Z,85.00
2019-01-10T13:22:54.111Z,85.20
2019-01-10T13:25:23.470Z,86.10
2019-01-10T13:27:53.019Z,86.40
2019-01-10T13:30:24.181Z,85.60
2019-01-10T13:32:53.893Z,85.20
2019-01-10T13:35:23.578Z,85.00
2019-01-10T13:37:53.004Z,85.60
2019-01-10T13:40:22.799Z,85.10
2019-01-10T13:42:52.407Z,92.60
2019-01-10T13:45:21.868Z,76.70
2019-01-10T13:47:51.307Z,73.60
2019-01-10T13:50:23.805Z,75.70
2019-01-10T13:52:53.420Z,77.90
2019-01-10T13:55:22.783Z,80.10
2019-01-10T13:57:53.117Z,81.30
2019-01-10T14:00:24.984Z,82.40
2019-01-10T14:02:54.249Z,82.50
2019-01-10T14:05:24.682Z,83.10
2019-01-10T14:07:54.095Z,83.60
2019-01-10T14:10:23.831Z,84.30
2019-01-10T14:12:53.250Z,84.40
2019-01-10T14:15:25.897Z,85.10
2019-01-10T14:17:55.357Z,85.10
2019-01-10T14:20:24.821Z,85.60
2019-01-10T14:22:54.251Z,85.60
2019-01-10T14:25:23.978Z,85.30
2019-01-10T14:27:59.377Z,85.90
2019-01-10T14:30:29.902Z,85.70
2019-01-10T14:32:59.524Z,85.80
2019-01-10T14:35:29.153Z,86.30
2019-01-10T14:37:58.838Z,87.00
2019-01-10T14:40:28.542Z,97.60
2019-01-10T14:42:58.156Z,75.10
2019-01-10T14:45:27.442Z,76.30
2019-01-10T14:48:01.780Z,79.10
2019-01-10T14:50:28.223Z,80.80
2019-01-10T14:52:57.488Z,82.00
2019-01-10T14:55:26.786Z,83.10
2019-01-10T14:57:56.091Z,83.70
2019-01-10T15:00:25.716Z,84.70
2019-01-10T15:02:55.338Z,85.40
2019-01-10T15:05:24.606Z,85.50
2019-01-10T15:07:53.957Z,85.80
2019-01-10T15:10:23.311Z,85.80
2019-01-10T15:12:52.940Z,86.50
2019-01-10T15:15:23.055Z,86.80
2019-01-10T15:17:52.338Z,86.80
2019-01-10T15:20:25.197Z,86.80
2019-01-10T15:22:54.474Z,86.80
2019-01-10T15:25:24.044Z,86.70
2019-01-10T15:27:53.498Z,86.90
2019-01-10T15:30:25.056Z,87.40
2019-01-10T15:32:54.692Z,87.40
2019-01-10T15:35:24.994Z,87.50
2019-01-10T15:37:54.553Z,87.70
2019-01-10T15:40:29.242Z,87.50
2019-01-10T15:42:58.609Z,87.50
2019-01-10T15:45:27.964Z,88.10
2019-01-10T15:47:57.609Z,90.00
2019-01-10T15:50:27.218Z,87.50
2019-01-10T15:52:56.804Z,86.60
2019-01-10T15:55:26.077Z,86.80
2019-01-10T15:57:55.434Z,87.20
2019-01-10T16:00:25.450Z,87.10
2019-01-10T16:02:55.248Z,86.80
2019-01-10T16:05:24.507Z,86.90
2019-01-10T16:07:54.042Z,86.90
2019-01-10T16:10:23.324Z,87.10
2019-01-10T16:12:52.943Z,86.70
2019-01-10T16:15:23.986Z,87.60
2019-01-10T16:17:53.279Z,87.70
2019-01-10T16:20:22.730Z,87.50
2019-01-10T16:22:52.530Z,87.70
2019-01-10T16:25:21.809Z,87.80
2019-01-10T16:27:51.099Z,87.90
2019-01-10T16:30:23.203Z,88.10
2019-01-10T16:32:52.557Z,87.90
2019-01-10T16:35:22.085Z,88.00
2019-01-10T16:37:51.382Z,88.20
2019-01-10T16:40:20.800Z,88.40
2019-01-10T16:42:50.398Z,89.10
2019-01-10T16:45:22.762Z,89.40
2019-01-10T16:47:52.386Z,89.20
2019-01-10T16:50:21.993Z,89.10
2019-01-10T16:52:51.290Z,89.50
2019-01-10T16:55:20.717Z,89.40
2019-01-10T16:57:50.082Z,89.40
2019-01-10T17:00:22.884Z,89.60
2019-01-10T17:02:52.347Z,90.10
2019-01-10T17:05:21.658Z,89.80
2019-01-10T17:07:51.393Z,89.70
2019-01-10T17:10:21.099Z,89.70
2019-01-10T17:12:50.402Z,89.80
2019-01-10T17:15:19.969Z,90.00
2019-01-10T17:17:49.521Z,90.00
2019-01-10T17:20:24.546Z,90.30
2019-01-10T17:22:53.861Z,90.40
2019-01-10T17:25:23.415Z,90.50
2019-01-10T17:27:52.966Z,90.20
2019-01-10T17:30:27.458Z,90.40
2019-01-10T17:32:56.738Z,90.40
2019-01-10T17:35:28.504Z,90.60
2019-01-10T17:37:58.255Z,90.50
2019-01-10T17:40:28.202Z,90.50
2019-01-10T17:42:58.194Z,90.40
2019-01-10T17:45:30.247Z,90.60
2019-01-10T17:47:59.546Z,90.70
2019-01-10T17:50:29.005Z,90.40
2019-01-10T17:52:58.299Z,90.50
2019-01-10T17:55:27.603Z,90.50
2019-01-10T17:57:56.883Z,90.80
2019-01-10T18:00:30.564Z,90.80
2019-01-10T18:03:00.187Z,90.80
2019-01-10T18:05:29.810Z,91.50
2019-01-10T18:07:59.390Z,91.70
2019-01-10T18:10:28.782Z,91.60
2019-01-10T18:12:58.213Z,91.50
2019-01-10T18:15:27.560Z,91.70
2019-01-10T18:17:56.830Z,91.60
2019-01-10T18:20:29.172Z,91.90
2019-01-10T18:22:58.778Z,92.80
2019-01-10T18:25:28.499Z,93.20
2019-01-10T18:27:57.771Z,93.50
2019-01-10T18:30:27.089Z,93.40
2019-01-10T18:32:56.374Z,93.20
2019-01-10T18:35:26.611Z,93.10
2019-01-10T18:37:56.137Z,93.70
2019-01-10T18:40:25.490Z,93.80
2019-01-10T18:42:54.793Z,94.30
2019-01-10T18:45:27.052Z,94.70
2019-01-10T18:47:57.142Z,95.20
2019-01-10T18:50:26.843Z,95.30
2019-01-10T18:52:57.055Z,95.20
2019-01-10T18:55:26.342Z,94.90
2019-01-10T18:57:55.623Z,94.80
2019-01-10T19:00:27.110Z,94.80
2019-01-10T19:02:56.914Z,94.70
2019-01-10T19:05:26.734Z,94.60
2019-01-10T19:07:56.440Z,94.90
2019-01-10T19:10:26.091Z,95.10
2019-01-10T19:12:55.408Z,95.30
2019-01-10T19:15:25.204Z,95.10
2019-01-10T19:17:54.762Z,94.90
2019-01-10T19:20:26.010Z,95.30
2019-01-10T19:22:57.025Z,95.60
2019-01-10T19:25:27.295Z,95.40
2019-01-10T19:27:56.906Z,87.80
2019-01-10T19:30:28.472Z,84.60
2019-01-10T19:32:57.961Z,85.80
2019-01-10T19:35:27.312Z,87.30
2019-01-10T19:37:57.077Z,89.00
2019-01-10T19:40:26.518Z,90.70
2019-01-10T19:42:55.819Z,91.50
2019-01-10T19:45:25.106Z,91.80
2019-01-10T19:47:54.398Z,92.40
2019-01-10T19:50:25.350Z,93.30
2019-01-10T19:52:54.649Z,93.50
2019-01-10T19:55:24.363Z,93.70
2019-01-10T19:57:53.724Z,94.10
2019-01-10T20:00:35.092Z,94.30
2019-01-10T20:03:04.647Z,94.70
2019-01-10T20:05:34.623Z,94.60
2019-01-10T20:08:04.434Z,94.80
2019-01-10T20:10:33.722Z,95.30
2019-01-10T20:13:03.021Z,95.50
2019-01-10T20:15:32.355Z,96.40
2019-01-10T20:18:01.865Z,96.60
2019-01-10T20:20:36.726Z,97.20
2019-01-10T20:23:07.060Z,98.00
2019-01-10T20:25:37.516Z,98.10
2019-01-10T20:28:06.881Z,98.10
2019-01-10T20:30:37.190Z,97.80
2019-01-10T20:33:06.495Z,97.70
2019-01-10T20:35:35.854Z,97.80
2019-01-10T20:38:06.286Z,98.10
2019-01-10T20:40:35.712Z,97.90
2019-01-10T20:43:05.231Z,98.00
2019-01-10T20:45:35.547Z,97.90
2019-01-10T20:48:04.836Z,98.00
2019-01-10T20:50:34.182Z,98.20
2019-01-10T20:53:03.609Z,98.30
2019-01-10T20:55:33.235Z,98.50
2019-01-10T20:58:02.946Z,98.40
2019-01-10T21:00:32.388Z,98.90
2019-01-10T21:03:01.950Z,99.50
2019-01-10T21:05:31.294Z,99.90
2019-01-10T21:08:00.679Z,99.90
2019-01-10T21:10:30.798Z,99.90
2019-01-10T21:13:00.382Z,99.90
2019-01-10T21:15:30.114Z,99.90
2019-01-10T21:17:59.707Z,99.90
2019-01-10T21:20:29.221Z,99.90
2019-01-10T21:22:59.761Z,99.90
2019-01-10T21:25:29.558Z,99.90
2019-01-10T21:27:58.927Z,99.90
2019-01-10T21:30:28.203Z,99.90
2019-01-10T21:32:57.778Z,99.90
2019-01-10T21:35:27.476Z,99.90
2019-01-10T21:37:57.080Z,99.90
2019-01-10T21:40:26.721Z,99.90
2019-01-10T21:42:56.302Z,99.90
2019-01-10T21:45:26.007Z,99.90
2019-01-10T21:47:55.455Z,99.90
2019-01-10T21:50:26.138Z,99.90
2019-01-10T21:52:55.755Z,99.90
2019-01-10T21:55:25.070Z,99.90
2019-01-10T21:57:55.500Z,99.90
2019-01-10T22:00:27.756Z,99.90
2019-01-10T22:02:57.590Z,99.90
2019-01-10T22:05:27.207Z,99.90
2019-01-10T22:07:56.784Z,99.90
2019-01-10T22:10:26.158Z,99.90
2019-01-10T22:12:55.431Z,99.90
2019-01-10T22:15:24.902Z,99.90
2019-01-10T22:17:54.190Z,99.90
2019-01-10T22:20:23.642Z,99.90
2019-01-10T22:22:52.923Z,99.90
2019-01-10T22:25:22.381Z,99.90
2019-01-10T22:27:52.543Z,99.90
2019-01-10T22:30:23.045Z,99.90
2019-01-10T22:32:52.667Z,99.90
2019-01-10T22:35:22.503Z,99.90
2019-01-10T22:37:52.051Z,99.90
2019-01-10T22:40:23.067Z,99.90
2019-01-10T22:42:52.521Z,99.90
2019-01-10T22:45:22.138Z,99.90
2019-01-10T22:47:51.427Z,99.90
2019-01-10T22:50:22.006Z,99.90
2019-01-10T22:52:51.508Z,99.90
2019-01-10T22:55:21.049Z,99.90
2019-01-10T22:57:50.343Z,99.90
2019-01-10T23:00:55.889Z,99.90
2019-01-10T23:03:25.158Z,99.90
2019-01-10T23:05:54.446Z,99.90
2019-01-10T23:08:24.135Z,99.90
2019-01-10T23:10:53.663Z,99.90
2019-01-10T23:13:23.179Z,99.90
2019-01-10T23:15:52.611Z,99.90
2019-01-10T23:18:21.883Z,99.90
2019-01-10T23:20:56.280Z,99.90
2019-01-10T23:23:25.871Z,99.90
2019-01-10T23:25:55.226Z,99.90
2019-01-10T23:28:24.683Z,99.90
2019-01-10T23:30:56.486Z,99.90
2019-01-10T23:33:26.603Z,99.90
2019-01-10T23:36:01.547Z,99.90
2019-01-10T23:38:31.275Z,99.90
2019-01-10T23:41:00.562Z,99.90
2019-01-10T23:43:30.218Z,99.90
2019-01-10T23:45:59.831Z,99.90
2019-01-10T23:48:29.334Z,99.90
2019-01-10T23:50:58.945Z,99.90
2019-01-10T23:53:29.580Z,99.90
2019-01-10T23:55:58.885Z,99.90
2019-01-10T23:58:28.145Z,99.90
